createdAt,value
2018-10-09T00:00:42.875Z,0.90
2018-10-09T00:03:11.777Z,0.90
2018-10-09T00:05:40.418Z,0.70
2018-10-09T00:08:09.542Z,0.77
2018-10-09T00:10:38.565Z,0.87
2018-10-09T00:13:08.285Z,0.80
2018-10-09T00:15:37.271Z,0.80
2018-10-09T00:18:05.971Z,0.77
2018-10-09T00:20:35.166Z,0.70
2018-10-09T00:23:04.236Z,0.80
2018-10-09T00:25:32.819Z,0.93
2018-10-09T00:28:01.779Z,0.80
2018-10-09T00:30:30.818Z,0.93
2018-10-09T00:32:59.829Z,0.80
2018-10-09T00:35:29.198Z,0.80
2018-10-09T00:37:58.105Z,0.90
2018-10-09T00:40:27.116Z,0.77
2018-10-09T00:42:56.070Z,0.70
2018-10-09T00:45:25.433Z,0.90
2018-10-09T00:47:54.726Z,0.90
2018-10-09T00:50:23.721Z,0.90
2018-10-09T00:52:53.725Z,0.90
2018-10-09T00:55:22.524Z,1.00
2018-10-09T00:57:51.759Z,1.00
2018-10-09T01:00:20.705Z,1.10
2018-10-09T01:02:49.738Z,1.00
2018-10-09T01:05:19.035Z,1.00
2018-10-09T01:07:48.189Z,1.10
2018-10-09T01:10:17.461Z,0.80
2018-10-09T01:12:46.834Z,0.90
2018-10-09T01:15:15.958Z,1.00
2018-10-09T01:17:44.909Z,1.13
2018-10-09T01:20:13.439Z,0.90
2018-10-09T01:22:42.632Z,1.10
2018-10-09T01:25:11.902Z,1.10
2018-10-09T01:27:40.523Z,1.00
2018-10-09T01:30:09.614Z,1.10
2018-10-09T01:32:38.908Z,1.10
2018-10-09T01:35:07.516Z,1.40
2018-10-09T01:37:36.105Z,1.50
2018-10-09T01:40:04.926Z,1.20
2018-10-09T01:42:33.618Z,1.03
2018-10-09T01:45:02.592Z,1.30
2018-10-09T01:47:31.967Z,1.40
2018-10-09T01:50:01.402Z,1.20
2018-10-09T01:52:30.425Z,1.27
2018-10-09T01:54:59.394Z,1.40
2018-10-09T01:57:28.502Z,1.33
2018-10-09T01:59:57.627Z,1.20
2018-10-09T02:02:26.738Z,1.20
2018-10-09T02:04:55.746Z,1.40
2018-10-09T02:07:25.054Z,1.20
2018-10-09T02:09:54.292Z,1.47
2018-10-09T02:12:23.365Z,1.10
2018-10-09T02:14:52.558Z,1.10
2018-10-09T02:17:21.906Z,1.10
2018-10-09T02:19:50.884Z,1.23
2018-10-09T02:22:19.785Z,1.40
2018-10-09T02:24:48.501Z,1.10
2018-10-09T02:27:17.384Z,1.43
2018-10-09T02:29:46.650Z,1.10
2018-10-09T02:32:15.914Z,1.30
2018-10-09T02:34:44.576Z,1.20
2018-10-09T02:37:13.554Z,1.23
2018-10-09T02:39:42.278Z,1.40
2018-10-09T02:42:11.865Z,1.30
2018-10-09T02:44:41.570Z,1.20
2018-10-09T02:47:10.757Z,1.30
2018-10-09T02:49:39.866Z,1.33
2018-10-09T02:52:08.698Z,1.30
2018-10-09T02:54:37.077Z,1.50
2018-10-09T02:57:06.362Z,1.80
2018-10-09T02:59:35.069Z,1.30
2018-10-09T03:02:04.273Z,1.90
2018-10-09T03:04:33.326Z,1.10
2018-10-09T03:07:02.625Z,1.30
2018-10-09T03:09:31.948Z,1.43
2018-10-09T03:12:01.254Z,1.53
2018-10-09T03:14:30.065Z,1.13
2018-10-09T03:16:59.375Z,1.30
2018-10-09T03:19:28.642Z,1.30
2018-10-09T03:21:57.746Z,1.30
2018-10-09T03:24:27.146Z,1.30
2018-10-09T03:26:56.480Z,1.37
2018-10-09T03:29:25.053Z,1.30
2018-10-09T03:31:54.514Z,1.33
2018-10-09T03:34:23.768Z,1.10
2018-10-09T03:36:53.011Z,1.40
2018-10-09T03:39:22.937Z,1.27
2018-10-09T03:41:52.365Z,1.33
2018-10-09T03:44:21.912Z,1.47
2018-10-09T03:46:50.895Z,1.27
2018-10-09T03:49:20.314Z,1.10
2018-10-09T03:51:49.091Z,1.20
2018-10-09T03:54:18.191Z,1.60
2018-10-09T03:56:47.242Z,1.70
2018-10-09T03:59:16.022Z,1.30
2018-10-09T04:01:45.310Z,1.33
2018-10-09T04:04:14.182Z,1.40
2018-10-09T04:06:43.527Z,1.50
2018-10-09T04:09:14.264Z,1.10
2018-10-09T04:11:44.284Z,1.27
2018-10-09T04:14:13.477Z,1.13
2018-10-09T04:16:43.166Z,1.27
2018-10-09T04:19:12.432Z,2.03
2018-10-09T04:21:41.814Z,1.40
2018-10-09T04:24:11.688Z,1.33
2018-10-09T04:26:40.827Z,1.87
2018-10-09T04:29:10.491Z,1.37
2018-10-09T04:31:39.353Z,1.07
2018-10-09T04:34:08.536Z,1.40
2018-10-09T04:36:37.162Z,1.20
2018-10-09T04:39:06.942Z,1.40
2018-10-09T04:41:36.334Z,1.30
2018-10-09T04:44:05.266Z,1.70
2018-10-09T04:46:34.752Z,1.30
2018-10-09T04:49:03.821Z,1.40
2018-10-09T04:51:33.391Z,1.50
2018-10-09T04:54:02.078Z,1.23
2018-10-09T04:56:30.928Z,1.40
2018-10-09T04:58:59.758Z,1.40
2018-10-09T05:01:29.145Z,1.50
2018-10-09T05:03:58.459Z,2.07
2018-10-09T05:06:27.481Z,1.30
2018-10-09T05:08:56.890Z,1.33
2018-10-09T05:11:25.841Z,1.50
2018-10-09T05:13:54.639Z,1.20
2018-10-09T05:16:23.617Z,1.20
2018-10-09T05:18:52.297Z,1.53
2018-10-09T05:21:21.330Z,1.10
2018-10-09T05:23:50.592Z,1.60
2018-10-09T05:26:19.926Z,1.30
2018-10-09T05:28:49.008Z,1.63
2018-10-09T05:31:17.447Z,1.27
2018-10-09T05:33:46.237Z,1.30
2018-10-09T05:36:15.422Z,1.40
2018-10-09T05:38:45.444Z,1.57
2018-10-09T05:41:14.709Z,1.40
2018-10-09T05:43:43.964Z,2.00
2018-10-09T05:46:12.638Z,1.30
2018-10-09T05:48:41.737Z,1.27
2018-10-09T05:51:10.805Z,1.40
2018-10-09T05:53:39.738Z,1.20
2018-10-09T05:56:08.392Z,1.30
2018-10-09T05:58:37.819Z,1.50
2018-10-09T06:01:06.811Z,1.50
2018-10-09T06:03:35.748Z,1.60
2018-10-09T06:06:05.492Z,1.40
2018-10-09T06:08:34.603Z,1.53
2018-10-09T06:11:03.726Z,1.40
2018-10-09T06:13:32.698Z,1.47
2018-10-09T06:16:01.938Z,1.50
2018-10-09T06:18:30.465Z,1.37
2018-10-09T06:21:00.645Z,1.40
2018-10-09T06:23:29.470Z,1.40
2018-10-09T06:26:01.111Z,1.40
2018-10-09T06:28:30.465Z,1.50
2018-10-09T06:30:59.734Z,1.53
2018-10-09T06:33:29.506Z,1.70
2018-10-09T06:35:59.089Z,1.47
2018-10-09T06:38:28.070Z,1.50
2018-10-09T06:40:57.347Z,1.10
2018-10-09T06:43:26.433Z,1.57
2018-10-09T06:45:55.969Z,1.10
2018-10-09T06:48:24.734Z,1.20
2018-10-09T06:50:56.150Z,1.13
2018-10-09T06:53:25.786Z,1.30
2018-10-09T06:55:54.656Z,1.23
2018-10-09T06:58:24.109Z,1.47
2018-10-09T07:00:53.536Z,1.30
2018-10-09T07:03:22.718Z,1.30
2018-10-09T07:05:51.420Z,1.50
2018-10-09T07:08:20.575Z,1.30
2018-10-09T07:10:49.878Z,1.23
2018-10-09T07:13:18.898Z,1.20
2018-10-09T07:15:48.689Z,1.23
2018-10-09T07:18:18.516Z,1.40
2018-10-09T07:20:47.424Z,1.13
2018-10-09T07:23:16.419Z,1.30
2018-10-09T07:25:45.157Z,1.30
2018-10-09T07:28:14.605Z,1.47
2018-10-09T07:30:43.799Z,1.50
2018-10-09T07:33:12.818Z,1.27
2018-10-09T07:35:41.949Z,1.30
2018-10-09T07:38:10.985Z,1.40
2018-10-09T07:40:40.380Z,1.40
2018-10-09T07:43:09.300Z,1.47
2018-10-09T07:45:38.323Z,1.43
2018-10-09T07:48:07.806Z,1.50
2018-10-09T07:50:37.537Z,1.40
2018-10-09T07:53:07.108Z,1.30
2018-10-09T07:55:36.130Z,1.60
2018-10-09T07:58:05.279Z,1.40
2018-10-09T08:00:34.568Z,1.40
2018-10-09T08:03:03.177Z,1.20
2018-10-09T08:05:32.022Z,1.40
2018-10-09T08:08:00.945Z,1.20
2018-10-09T08:10:30.110Z,1.40
2018-10-09T08:12:59.348Z,1.13
2018-10-09T08:15:28.655Z,1.43
2018-10-09T08:17:58.541Z,1.30
2018-10-09T08:20:27.570Z,1.60
2018-10-09T08:22:56.618Z,1.20
2018-10-09T08:25:25.558Z,1.20
2018-10-09T08:27:54.564Z,1.50
2018-10-09T08:30:23.764Z,1.27
2018-10-09T08:32:52.761Z,1.10
2018-10-09T08:35:21.347Z,1.30
2018-10-09T08:37:49.764Z,1.57
2018-10-09T08:40:18.962Z,1.63
2018-10-09T08:42:48.195Z,1.50
2018-10-09T08:45:17.306Z,1.40
2018-10-09T08:47:45.751Z,1.40
2018-10-09T08:50:14.721Z,1.70
2018-10-09T08:52:43.450Z,1.33
2018-10-09T08:55:12.716Z,2.13
2018-10-09T08:57:41.530Z,1.40
2018-10-09T09:00:11.126Z,1.30
2018-10-09T09:02:41.205Z,1.20
2018-10-09T09:05:10.522Z,1.27
2018-10-09T09:07:40.026Z,1.60
2018-10-09T09:10:09.123Z,1.53
2018-10-09T09:12:38.634Z,1.47
2018-10-09T09:15:08.014Z,1.60
2018-10-09T09:17:36.929Z,1.50
2018-10-09T09:20:05.607Z,1.80
2018-10-09T09:22:35.009Z,1.67
2018-10-09T09:25:03.594Z,1.63
2018-10-09T09:27:32.399Z,1.80
2018-10-09T09:30:01.005Z,1.60
2018-10-09T09:32:30.763Z,1.73
2018-10-09T09:35:00.617Z,1.67
2018-10-09T09:37:29.866Z,1.80
2018-10-09T09:39:59.309Z,2.10
2018-10-09T09:42:29.078Z,1.33
2018-10-09T09:44:58.258Z,2.10
2018-10-09T09:47:27.456Z,2.03
2018-10-09T09:49:56.585Z,1.93
2018-10-09T09:52:25.283Z,2.10
2018-10-09T09:54:53.976Z,1.87
2018-10-09T09:57:22.614Z,1.50
2018-10-09T09:59:51.848Z,2.20
2018-10-09T10:02:20.976Z,1.80
2018-10-09T10:04:49.826Z,1.60
2018-10-09T10:07:18.861Z,2.17
2018-10-09T10:09:47.410Z,2.03
2018-10-09T10:12:16.484Z,2.27
2018-10-09T10:14:46.181Z,1.40
2018-10-09T10:17:15.467Z,1.67
2018-10-09T10:19:44.569Z,1.87
2018-10-09T10:22:13.469Z,2.60
2018-10-09T10:24:42.811Z,2.33
2018-10-09T10:27:11.854Z,1.73
2018-10-09T10:29:40.758Z,2.17
2018-10-09T10:32:09.702Z,2.10
2018-10-09T10:34:38.914Z,1.70
2018-10-09T10:37:07.889Z,2.20
2018-10-09T10:39:37.258Z,1.67
2018-10-09T10:42:06.630Z,1.97
2018-10-09T10:44:35.479Z,1.70
2018-10-09T10:47:04.243Z,1.93
2018-10-09T10:49:33.603Z,1.90
2018-10-09T10:52:02.247Z,2.07
2018-10-09T10:54:31.677Z,2.00
2018-10-09T10:57:00.845Z,1.63
2018-10-09T10:59:30.126Z,1.50
2018-10-09T11:01:59.330Z,1.60
2018-10-09T11:04:29.082Z,1.60
2018-10-09T11:06:58.279Z,1.43
2018-10-09T11:09:28.084Z,1.77
2018-10-09T11:11:57.439Z,1.60
2018-10-09T11:14:26.966Z,1.87
2018-10-09T11:16:55.650Z,2.13
2018-10-09T11:19:24.716Z,1.93
2018-10-09T11:21:54.934Z,1.77
2018-10-09T11:24:24.218Z,1.50
2018-10-09T11:26:52.816Z,2.20
2018-10-09T11:29:22.103Z,1.70
2018-10-09T11:31:51.017Z,1.43
2018-10-09T11:34:20.082Z,1.97
2018-10-09T11:36:49.530Z,2.10
2018-10-09T11:39:18.798Z,1.90
2018-10-09T11:41:47.835Z,1.60
2018-10-09T11:44:17.868Z,1.60
2018-10-09T11:46:46.497Z,1.83
2018-10-09T11:49:15.858Z,1.93
2018-10-09T11:51:44.566Z,1.70
2018-10-09T11:54:13.894Z,1.60
2018-10-09T11:56:43.500Z,2.10
2018-10-09T11:59:12.822Z,1.50
2018-10-09T12:01:41.716Z,1.60
2018-10-09T12:04:11.011Z,1.57
2018-10-09T12:06:40.379Z,1.70
2018-10-09T12:09:09.938Z,1.57
2018-10-09T12:11:39.394Z,1.43
2018-10-09T12:14:09.932Z,1.90
2018-10-09T12:16:38.534Z,1.80
2018-10-09T12:19:07.591Z,1.50
2018-10-09T12:21:36.633Z,1.60
2018-10-09T12:24:05.293Z,1.80
2018-10-09T12:26:34.246Z,1.53
2018-10-09T12:29:03.326Z,1.90
2018-10-09T12:31:32.452Z,1.90
2018-10-09T12:34:01.658Z,1.70
2018-10-09T12:36:30.282Z,1.50
2018-10-09T12:38:59.395Z,1.70
2018-10-09T12:41:28.578Z,1.70
2018-10-09T12:43:57.530Z,1.67
2018-10-09T12:46:26.482Z,2.53
2018-10-09T12:48:56.796Z,2.43
2018-10-09T12:51:25.881Z,1.73
2018-10-09T12:53:55.189Z,1.80
2018-10-09T12:56:24.127Z,1.50
2018-10-09T12:58:53.552Z,1.50
2018-10-09T13:01:23.202Z,1.90
2018-10-09T13:03:52.470Z,1.80
2018-10-09T13:06:21.408Z,1.63
2018-10-09T13:08:50.687Z,2.00
2018-10-09T13:11:20.386Z,1.53
2018-10-09T13:13:49.082Z,1.97
2018-10-09T13:16:19.041Z,1.63
2018-10-09T13:18:48.246Z,1.80
2018-10-09T13:21:17.540Z,1.83
2018-10-09T13:23:46.402Z,1.70
2018-10-09T13:26:16.177Z,2.03
2018-10-09T13:28:45.665Z,1.80
2018-10-09T13:31:14.260Z,1.90
2018-10-09T13:33:43.134Z,2.10
2018-10-09T13:36:12.001Z,2.10
2018-10-09T13:38:41.654Z,2.07
2018-10-09T13:41:10.727Z,1.97
2018-10-09T13:43:39.966Z,2.37
2018-10-09T13:46:09.422Z,2.00
2018-10-09T13:48:38.566Z,2.00
2018-10-09T13:51:08.375Z,2.27
2018-10-09T13:53:37.222Z,2.23
2018-10-09T13:56:06.630Z,1.90
2018-10-09T13:58:35.885Z,2.17
2018-10-09T14:01:04.786Z,2.10
2018-10-09T14:03:34.396Z,2.10
2018-10-09T14:06:03.247Z,2.03
2018-10-09T14:08:32.526Z,2.33
2018-10-09T14:11:01.654Z,2.20
2018-10-09T14:13:31.930Z,2.37
2018-10-09T14:16:01.826Z,2.20
2018-10-09T14:18:31.549Z,1.97
2018-10-09T14:21:00.545Z,2.30
2018-10-09T14:23:29.440Z,2.20
2018-10-09T14:25:58.473Z,2.10
2018-10-09T14:28:27.667Z,1.90
2018-10-09T14:30:56.630Z,2.37
2018-10-09T14:33:25.637Z,2.43
2018-10-09T14:35:54.328Z,2.73
2018-10-09T14:38:23.426Z,2.00
2018-10-09T14:40:52.758Z,2.23
2018-10-09T14:43:24.754Z,2.20
2018-10-09T14:45:54.325Z,2.00
2018-10-09T14:48:23.706Z,2.60
2018-10-09T14:50:52.970Z,2.13
2018-10-09T14:53:22.374Z,1.77
2018-10-09T14:55:50.765Z,2.20
2018-10-09T14:58:19.342Z,2.10
2018-10-09T15:00:48.495Z,1.83
2018-10-09T15:03:17.517Z,2.03
2018-10-09T15:05:46.397Z,2.30
2018-10-09T15:08:15.034Z,1.93
2018-10-09T15:10:43.929Z,1.90
2018-10-09T15:13:13.999Z,2.20
2018-10-09T15:15:42.581Z,2.03
2018-10-09T15:18:11.746Z,1.93
2018-10-09T15:20:40.799Z,2.30
2018-10-09T15:23:09.896Z,2.07
2018-10-09T15:25:38.986Z,2.20
2018-10-09T15:28:08.054Z,2.33
2018-10-09T15:30:37.803Z,1.80
2018-10-09T15:33:06.390Z,2.03
2018-10-09T15:35:35.197Z,2.33
2018-10-09T15:38:04.509Z,6.20
2018-10-09T15:40:33.549Z,4.33
2018-10-09T15:43:03.322Z,4.70
2018-10-09T15:45:32.258Z,2.13
2018-10-09T15:48:01.291Z,4.40
2018-10-09T15:50:30.567Z,3.17
2018-10-09T15:52:59.299Z,4.10
2018-10-09T15:55:28.596Z,2.90
2018-10-09T15:57:57.853Z,3.40
2018-10-09T16:00:26.956Z,2.73
2018-10-09T16:02:56.069Z,2.77
2018-10-09T16:05:25.298Z,2.53
2018-10-09T16:07:54.382Z,2.33
2018-10-09T16:10:23.578Z,2.40
2018-10-09T16:12:52.597Z,2.10
2018-10-09T16:15:21.455Z,2.23
2018-10-09T16:17:50.353Z,2.20
2018-10-09T16:20:20.577Z,1.73
2018-10-09T16:22:49.882Z,1.90
2018-10-09T16:25:19.119Z,2.20
2018-10-09T16:27:48.482Z,2.27
2018-10-09T16:30:17.936Z,2.10
2018-10-09T16:32:48.634Z,2.07
2018-10-09T16:35:17.530Z,1.70
2018-10-09T16:37:45.951Z,2.43
2018-10-09T16:40:15.474Z,2.03
2018-10-09T16:42:44.466Z,2.00
2018-10-09T16:45:13.418Z,1.70
2018-10-09T16:47:42.412Z,1.77
2018-10-09T16:50:11.674Z,1.97
2018-10-09T16:52:41.049Z,1.83
2018-10-09T16:55:10.002Z,1.90
2018-10-09T16:57:38.938Z,2.03
2018-10-09T17:00:08.430Z,2.07
2018-10-09T17:02:37.556Z,1.90
2018-10-09T17:05:06.634Z,2.17
2018-10-09T17:07:35.489Z,1.93
2018-10-09T17:10:04.141Z,1.80
2018-10-09T17:12:33.549Z,1.90
2018-10-09T17:15:02.208Z,2.20
2018-10-09T17:17:32.157Z,1.73
2018-10-09T17:20:01.607Z,1.67
2018-10-09T17:22:30.726Z,1.70
2018-10-09T17:24:59.726Z,2.37
2018-10-09T17:27:28.201Z,1.50
2018-10-09T17:29:58.054Z,1.80
2018-10-09T17:32:27.525Z,1.80
2018-10-09T17:34:56.509Z,1.80
2018-10-09T17:37:25.869Z,1.83
2018-10-09T17:39:55.607Z,1.50
2018-10-09T17:42:25.274Z,1.97
2018-10-09T17:44:54.503Z,1.57
2018-10-09T17:47:24.233Z,1.97
2018-10-09T17:49:53.629Z,1.80
2018-10-09T17:52:22.506Z,2.00
2018-10-09T17:54:51.833Z,1.50
2018-10-09T17:57:21.694Z,1.73
2018-10-09T17:59:51.142Z,1.80
2018-10-09T18:02:22.072Z,1.90
2018-10-09T18:04:52.161Z,2.00
2018-10-09T18:07:21.196Z,2.50
2018-10-09T18:09:50.197Z,1.87
2018-10-09T18:12:19.217Z,2.17
2018-10-09T18:14:47.787Z,1.67
2018-10-09T18:17:17.076Z,1.77
2018-10-09T18:19:46.321Z,2.23
2018-10-09T18:22:15.375Z,1.70
2018-10-09T18:24:44.808Z,1.80
2018-10-09T18:27:13.614Z,1.53
2018-10-09T18:29:42.331Z,1.70
2018-10-09T18:32:11.467Z,2.00
2018-10-09T18:34:40.353Z,1.90
2018-10-09T18:37:09.066Z,1.80
2018-10-09T18:39:38.137Z,1.93
2018-10-09T18:42:06.725Z,2.03
2018-10-09T18:44:35.989Z,1.63
2018-10-09T18:47:09.246Z,2.20
2018-10-09T18:49:37.772Z,2.00
2018-10-09T18:52:06.946Z,2.20
2018-10-09T18:54:35.640Z,1.90
2018-10-09T18:57:05.378Z,1.90
2018-10-09T18:59:34.246Z,2.07
2018-10-09T19:02:03.194Z,2.00
2018-10-09T19:04:32.524Z,1.80
2018-10-09T19:07:01.631Z,2.30
2018-10-09T19:09:30.738Z,2.23
2018-10-09T19:12:00.914Z,1.77
2018-10-09T19:14:29.985Z,2.27
2018-10-09T19:16:58.950Z,2.30
2018-10-09T19:19:28.302Z,1.97
2018-10-09T19:21:57.061Z,1.63
2018-10-09T19:24:25.713Z,1.80
2018-10-09T19:26:54.983Z,1.90
2018-10-09T19:29:24.171Z,1.80
2018-10-09T19:31:53.553Z,2.10
2018-10-09T19:34:22.606Z,1.80
2018-10-09T19:36:51.947Z,2.10
2018-10-09T19:39:21.082Z,1.80
2018-10-09T19:41:50.970Z,1.97
2018-10-09T19:44:19.474Z,2.10
2018-10-09T19:46:48.562Z,1.80
2018-10-09T19:49:17.283Z,1.93
2018-10-09T19:51:45.974Z,1.60
2018-10-09T19:54:15.051Z,2.20
2018-10-09T19:56:44.234Z,1.60
2018-10-09T19:59:13.486Z,1.70
2018-10-09T20:01:42.866Z,1.97
2018-10-09T20:04:11.145Z,2.13
2018-10-09T20:06:41.491Z,1.67
2018-10-09T20:09:10.866Z,1.77
2018-10-09T20:11:40.095Z,1.40
2018-10-09T20:14:10.399Z,1.80
2018-10-09T20:16:40.069Z,1.67
2018-10-09T20:19:10.241Z,1.87
2018-10-09T20:21:39.638Z,1.67
2018-10-09T20:24:08.349Z,2.03
2018-10-09T20:26:37.934Z,2.03
2018-10-09T20:29:06.867Z,1.70
2018-10-09T20:31:35.865Z,1.67
2018-10-09T20:34:04.533Z,1.80
2018-10-09T20:36:33.449Z,1.63
2018-10-09T20:39:02.678Z,1.63
2018-10-09T20:41:32.051Z,2.13
2018-10-09T20:44:01.783Z,1.60
2018-10-09T20:46:30.530Z,1.40
2018-10-09T20:48:59.451Z,2.10
2018-10-09T20:51:28.464Z,1.50
2018-10-09T20:53:57.221Z,1.77
2018-10-09T20:56:26.193Z,1.90
2018-10-09T20:58:54.614Z,1.40
2018-10-09T21:01:23.999Z,1.83
2018-10-09T21:03:53.014Z,1.63
2018-10-09T21:06:22.490Z,1.50
2018-10-09T21:08:52.737Z,2.07
2018-10-09T21:11:21.630Z,1.57
2018-10-09T21:13:50.356Z,1.53
2018-10-09T21:16:19.470Z,1.83
2018-10-09T21:18:48.565Z,1.70
2018-10-09T21:21:17.313Z,1.80
2018-10-09T21:23:47.034Z,1.40
2018-10-09T21:26:15.590Z,1.80
2018-10-09T21:28:44.813Z,1.77
2018-10-09T21:31:14.150Z,1.80
2018-10-09T21:33:42.746Z,1.67
2018-10-09T21:36:11.946Z,1.87
2018-10-09T21:38:41.214Z,1.40
2018-10-09T21:41:11.169Z,2.03
2018-10-09T21:43:40.174Z,1.50
2018-10-09T21:46:09.165Z,1.80
2018-10-09T21:48:38.269Z,1.73
2018-10-09T21:51:07.537Z,1.80
2018-10-09T21:53:36.668Z,1.57
2018-10-09T21:56:05.665Z,1.60
2018-10-09T21:58:34.798Z,1.75
2018-10-09T22:01:10.414Z,1.50
2018-10-09T22:03:39.690Z,1.57
2018-10-09T22:06:08.410Z,1.83
2018-10-09T22:08:37.378Z,2.03
2018-10-09T22:11:06.376Z,1.50
2018-10-09T22:13:34.986Z,1.50
2018-10-09T22:16:04.109Z,1.90
2018-10-09T22:18:32.475Z,1.50
2018-10-09T22:21:01.168Z,1.47
2018-10-09T22:23:30.921Z,2.13
2018-10-09T22:25:59.558Z,1.63
2018-10-09T22:28:28.233Z,2.37
2018-10-09T22:30:57.326Z,1.60
2018-10-09T22:33:26.349Z,1.50
2018-10-09T22:35:55.286Z,1.50
2018-10-09T22:38:24.069Z,1.53
2018-10-09T22:40:53.373Z,1.90
2018-10-09T22:43:21.969Z,2.00
2018-10-09T22:45:50.527Z,1.93
2018-10-09T22:48:19.693Z,1.87
2018-10-09T22:50:48.410Z,1.93
2018-10-09T22:53:17.122Z,1.67
2018-10-09T22:55:46.434Z,1.57
2018-10-09T22:58:15.922Z,2.10
2018-10-09T23:00:45.051Z,1.60
2018-10-09T23:03:14.429Z,1.83
2018-10-09T23:05:44.350Z,1.53
2018-10-09T23:08:14.110Z,1.60
2018-10-09T23:10:42.751Z,1.70
2018-10-09T23:13:11.622Z,1.77
2018-10-09T23:15:40.952Z,2.23
2018-10-09T23:18:10.073Z,1.67
2018-10-09T23:20:38.928Z,1.90
2018-10-09T23:23:08.261Z,1.97
2018-10-09T23:25:36.825Z,1.93
2018-10-09T23:28:05.729Z,2.10
2018-10-09T23:30:34.658Z,1.70
2018-10-09T23:33:03.962Z,1.60
2018-10-09T23:35:33.434Z,1.73
2018-10-09T23:38:01.954Z,1.90
2018-10-09T23:40:30.609Z,1.70
2018-10-09T23:42:59.321Z,2.00
2018-10-09T23:45:28.114Z,1.97
2018-10-09T23:48:07.321Z,2.13
2018-10-09T23:50:37.230Z,1.70
2018-10-09T23:53:06.374Z,1.93
2018-10-09T23:55:36.022Z,1.70
2018-10-09T23:58:04.755Z,1.63
